createdAt,value
2019-02-19T00:01:22.032Z,29.13
2019-02-19T00:03:52.423Z,27.53
2019-02-19T00:06:22.884Z,24.70
2019-02-19T00:08:54.875Z,29.20
2019-02-19T00:11:25.241Z,23.70
2019-02-19T00:13:55.558Z,22.80
2019-02-19T00:16:26.051Z,22.40
2019-02-19T00:18:56.481Z,22.93
2019-02-19T00:21:26.842Z,24.90
2019-02-19T00:23:57.169Z,23.93
2019-02-19T00:26:27.518Z,21.90
2019-02-19T00:28:57.832Z,21.70
2019-02-19T00:31:28.198Z,21.30
2019-02-19T00:33:58.589Z,19.93
2019-02-19T00:36:28.955Z,19.37
2019-02-19T00:38:59.399Z,20.40
2019-02-19T00:41:29.807Z,20.90
2019-02-19T00:44:00.134Z,20.60
2019-02-19T00:46:30.518Z,21.03
2019-02-19T00:49:00.840Z,18.30
2019-02-19T00:51:31.174Z,20.80
2019-02-19T00:54:01.552Z,20.67
2019-02-19T00:56:31.874Z,21.57
2019-02-19T00:59:02.250Z,19.17
2019-02-19T01:01:32.577Z,19.60
2019-02-19T01:04:03.124Z,20.13
2019-02-19T01:06:33.468Z,18.47
2019-02-19T01:09:05.242Z,14.30
2019-02-19T01:11:35.864Z,17.40
2019-02-19T01:14:06.447Z,18.90
2019-02-19T01:16:36.835Z,19.57
2019-02-19T01:19:07.269Z,17.20
2019-02-19T01:21:37.707Z,16.90
2019-02-19T01:24:08.115Z,17.17
2019-02-19T01:26:38.477Z,16.83
2019-02-19T01:29:08.823Z,15.03
2019-02-19T01:31:39.302Z,14.73
2019-02-19T01:34:09.794Z,15.17
2019-02-19T01:36:40.851Z,13.67
2019-02-19T01:39:11.387Z,14.20
2019-02-19T01:41:41.789Z,13.17
2019-02-19T01:44:12.290Z,11.70
2019-02-19T01:46:42.881Z,11.63
2019-02-19T01:49:13.193Z,12.77
2019-02-19T01:51:43.821Z,13.47
2019-02-19T01:54:14.274Z,13.70
2019-02-19T01:56:44.581Z,11.37
2019-02-19T01:59:14.999Z,11.53
2019-02-19T02:01:45.642Z,12.67
2019-02-19T02:04:15.969Z,13.47
2019-02-19T02:06:46.282Z,13.85
2019-02-19T02:09:16.626Z,9.50
2019-02-19T02:11:47.028Z,11.33
2019-02-19T02:14:17.466Z,11.30
2019-02-19T02:16:47.788Z,10.07
2019-02-19T02:19:18.220Z,13.57
2019-02-19T02:21:48.977Z,10.93
2019-02-19T02:24:19.282Z,9.20
2019-02-19T02:26:49.831Z,11.90
2019-02-19T02:29:20.186Z,9.97
2019-02-19T02:31:50.627Z,12.30
2019-02-19T02:34:21.083Z,11.63
2019-02-19T02:36:51.678Z,9.73
2019-02-19T02:39:22.019Z,9.83
2019-02-19T02:41:52.616Z,8.93
2019-02-19T02:44:22.972Z,9.33
2019-02-19T02:46:53.477Z,11.90
2019-02-19T02:49:23.945Z,10.53
2019-02-19T02:51:54.359Z,11.27
2019-02-19T02:54:24.971Z,10.83
2019-02-19T02:56:55.453Z,14.10
2019-02-19T02:59:25.964Z,10.27
2019-02-19T03:01:56.376Z,11.93
2019-02-19T03:04:26.743Z,14.80
2019-02-19T03:07:11.642Z,11.97
2019-02-19T03:09:41.995Z,10.70
2019-02-19T03:12:12.398Z,10.10
2019-02-19T03:14:42.739Z,12.60
2019-02-19T03:17:13.059Z,11.57
2019-02-19T03:19:43.546Z,12.63
2019-02-19T03:22:13.914Z,8.77
2019-02-19T03:24:44.330Z,11.17
2019-02-19T03:27:14.651Z,11.60
2019-02-19T03:29:45.071Z,9.43
2019-02-19T03:32:15.385Z,8.70
2019-02-19T03:34:45.732Z,7.93
2019-02-19T03:37:16.056Z,10.37
2019-02-19T03:39:47.352Z,8.60
2019-02-19T03:42:18.187Z,9.37
2019-02-19T03:44:48.810Z,7.90
2019-02-19T03:47:19.317Z,10.23
2019-02-19T03:49:49.886Z,10.03
2019-02-19T03:52:20.232Z,9.77
2019-02-19T03:54:50.570Z,9.70
2019-02-19T03:57:20.914Z,10.90
2019-02-19T03:59:51.367Z,10.83
2019-02-19T04:02:21.660Z,10.90
2019-02-19T04:04:52.118Z,10.93
2019-02-19T04:07:22.447Z,11.30
2019-02-19T04:09:52.788Z,9.83
2019-02-19T04:12:23.527Z,9.53
2019-02-19T04:14:53.874Z,9.10
2019-02-19T04:17:24.181Z,9.30
2019-02-19T04:19:54.522Z,10.90
2019-02-19T04:22:24.855Z,8.97
2019-02-19T04:24:55.200Z,9.50
2019-02-19T04:27:25.500Z,11.33
2019-02-19T04:29:55.873Z,11.07
2019-02-19T04:32:26.195Z,11.17
2019-02-19T04:34:56.535Z,10.30
2019-02-19T04:37:26.856Z,9.67
2019-02-19T04:39:57.209Z,11.00
2019-02-19T04:42:27.565Z,9.90
2019-02-19T04:44:57.901Z,10.33
2019-02-19T04:47:28.406Z,7.67
2019-02-19T04:49:58.751Z,7.93
2019-02-19T04:52:29.070Z,11.30
2019-02-19T04:54:59.438Z,10.60
2019-02-19T04:57:29.783Z,10.30
2019-02-19T05:00:00.346Z,9.73
2019-02-19T05:02:31.459Z,10.85
2019-02-19T05:05:01.836Z,11.57
2019-02-19T05:07:32.242Z,8.83
2019-02-19T05:10:02.601Z,9.37
2019-02-19T05:12:34.007Z,10.57
2019-02-19T05:15:04.500Z,9.37
2019-02-19T05:17:34.825Z,11.20
2019-02-19T05:20:06.024Z,10.60
2019-02-19T05:22:36.346Z,10.03
2019-02-19T05:25:07.092Z,10.30
2019-02-19T05:27:37.430Z,9.15
2019-02-19T05:30:08.298Z,9.87
2019-02-19T05:32:38.625Z,9.78
2019-02-19T05:35:09.016Z,11.00
2019-02-19T05:37:39.335Z,7.87
2019-02-19T05:40:10.280Z,8.87
2019-02-19T05:42:40.609Z,8.38
2019-02-19T05:45:11.116Z,9.10
2019-02-19T05:47:41.464Z,11.73
2019-02-19T05:50:12.138Z,8.73
2019-02-19T05:52:42.448Z,10.13
2019-02-19T05:55:12.947Z,8.80
2019-02-19T05:57:43.261Z,10.00
2019-02-19T06:00:14.500Z,10.80
2019-02-19T06:02:44.851Z,10.13
2019-02-19T06:05:15.186Z,11.00
2019-02-19T06:07:45.516Z,9.97
2019-02-19T06:10:15.872Z,10.13
2019-02-19T06:12:46.188Z,19.50
2019-02-19T06:15:16.623Z,11.57
2019-02-19T06:17:46.938Z,10.27
2019-02-19T06:20:17.370Z,12.10
2019-02-19T06:22:47.684Z,12.37
2019-02-19T06:25:18.144Z,10.97
2019-02-19T06:27:48.443Z,15.63
2019-02-19T06:30:18.788Z,12.57
2019-02-19T06:32:49.114Z,12.00
2019-02-19T06:35:19.470Z,10.50
2019-02-19T06:37:49.798Z,12.97
2019-02-19T06:40:30.005Z,11.03
2019-02-19T06:43:00.338Z,11.73
2019-02-19T06:45:30.694Z,10.60
2019-02-19T06:48:01.029Z,10.03
2019-02-19T06:50:31.798Z,9.03
2019-02-19T06:53:02.152Z,10.40
2019-02-19T06:55:32.519Z,10.20
2019-02-19T06:58:02.929Z,11.03
2019-02-19T07:00:33.275Z,11.23
2019-02-19T07:03:21.256Z,10.80
2019-02-19T07:05:51.626Z,11.83
2019-02-19T07:08:21.979Z,14.13
2019-02-19T07:10:52.327Z,15.33
2019-02-19T07:13:22.651Z,11.10
2019-02-19T07:15:53.038Z,10.30
2019-02-19T07:18:23.375Z,11.23
2019-02-19T07:20:53.753Z,9.60
2019-02-19T07:23:24.086Z,8.63
2019-02-19T07:25:54.470Z,11.10
2019-02-19T07:28:24.786Z,8.80
2019-02-19T07:30:55.155Z,10.87
2019-02-19T07:33:25.485Z,9.53
2019-02-19T07:35:55.837Z,9.43
2019-02-19T07:38:26.161Z,9.67
2019-02-19T07:40:56.546Z,9.57
2019-02-19T07:43:26.920Z,10.87
2019-02-19T07:45:57.639Z,10.30
2019-02-19T07:48:28.889Z,10.27
2019-02-19T07:50:59.283Z,10.73
2019-02-19T07:53:29.644Z,10.60
2019-02-19T07:55:59.954Z,10.07
2019-02-19T07:58:30.686Z,9.90
2019-02-19T08:01:01.189Z,9.40
2019-02-19T08:03:31.794Z,11.80
2019-02-19T08:06:02.501Z,9.83
2019-02-19T08:08:33.063Z,12.27
2019-02-19T08:11:03.575Z,8.83
2019-02-19T08:13:34.135Z,9.83
2019-02-19T08:16:07.762Z,11.40
2019-02-19T08:18:38.273Z,11.93
2019-02-19T08:21:08.624Z,10.17
2019-02-19T08:23:38.982Z,11.63
2019-02-19T08:26:09.539Z,8.33
2019-02-19T08:29:02.934Z,9.83
2019-02-19T08:31:26.669Z,12.23
2019-02-19T08:33:57.151Z,12.87
2019-02-19T08:36:29.587Z,10.37
2019-02-19T08:38:59.654Z,9.87
2019-02-19T08:41:30.005Z,16.93
2019-02-19T08:44:00.595Z,15.43
2019-02-19T08:46:31.679Z,17.82
2019-02-19T08:49:02.511Z,18.13
2019-02-19T08:51:32.881Z,17.27
2019-02-19T08:54:03.583Z,12.27
2019-02-19T08:56:33.967Z,16.00
2019-02-19T08:59:04.396Z,16.80
2019-02-19T09:01:34.756Z,17.30
2019-02-19T09:04:05.136Z,15.60
2019-02-19T09:06:35.462Z,14.97
2019-02-19T09:09:07.051Z,14.93
2019-02-19T09:11:38.765Z,11.27
2019-02-19T09:14:09.121Z,14.60
2019-02-19T09:16:39.566Z,12.60
2019-02-19T09:19:09.919Z,14.67
2019-02-19T09:21:40.309Z,12.53
2019-02-19T09:24:10.672Z,13.00
2019-02-19T09:26:41.003Z,12.03
2019-02-19T09:29:11.547Z,11.83
2019-02-19T09:31:41.914Z,12.47
2019-02-19T09:34:12.290Z,17.03
2019-02-19T09:36:42.629Z,14.93
2019-02-19T09:39:13.302Z,14.53
2019-02-19T09:41:43.636Z,14.03
2019-02-19T09:44:13.989Z,11.50
2019-02-19T09:46:44.349Z,13.63
2019-02-19T09:49:14.706Z,13.53
2019-02-19T09:51:45.575Z,15.13
2019-02-19T09:54:15.999Z,9.93
2019-02-19T09:56:46.326Z,16.07
2019-02-19T09:59:16.707Z,10.47
2019-02-19T10:01:47.111Z,13.87
2019-02-19T10:04:17.591Z,10.43
2019-02-19T10:06:48.013Z,12.47
2019-02-19T10:09:18.398Z,11.50
2019-02-19T10:11:48.754Z,11.07
2019-02-19T10:14:19.193Z,9.83
2019-02-19T10:16:49.518Z,9.87
2019-02-19T10:19:19.865Z,10.67
2019-02-19T10:21:50.220Z,9.80
2019-02-19T10:24:20.594Z,11.07
2019-02-19T10:26:50.921Z,10.57
2019-02-19T10:29:21.249Z,10.37
2019-02-19T10:31:51.645Z,10.57
2019-02-19T10:34:22.095Z,10.83
2019-02-19T10:36:52.435Z,10.37
2019-02-19T10:39:22.791Z,10.87
2019-02-19T10:41:53.113Z,9.57
2019-02-19T10:44:23.486Z,9.47
2019-02-19T10:46:53.857Z,12.63
2019-02-19T10:49:24.242Z,10.70
2019-02-19T10:51:54.568Z,11.47
2019-02-19T10:54:24.973Z,11.67
2019-02-19T10:56:55.336Z,10.30
2019-02-19T10:59:25.701Z,13.90
2019-02-19T11:01:56.043Z,13.50
2019-02-19T11:04:26.394Z,10.90
2019-02-19T11:06:56.769Z,11.22
2019-02-19T11:09:27.278Z,9.37
2019-02-19T11:11:58.142Z,11.77
2019-02-19T11:14:28.679Z,10.60
2019-02-19T11:16:59.014Z,11.63
2019-02-19T11:19:30.659Z,12.57
2019-02-19T11:22:01.009Z,10.90
2019-02-19T11:24:31.383Z,12.40
2019-02-19T11:27:01.701Z,12.60
2019-02-19T11:29:32.079Z,14.03
2019-02-19T11:32:04.181Z,14.50
2019-02-19T11:34:35.635Z,12.37
2019-02-19T11:37:06.046Z,16.20
2019-02-19T11:39:36.836Z,13.20
2019-02-19T11:42:07.212Z,13.80
2019-02-19T11:44:38.881Z,19.80
2019-02-19T11:47:09.282Z,13.47
2019-02-19T11:49:40.784Z,18.03
2019-02-19T11:52:11.153Z,16.80
2019-02-19T11:54:41.524Z,16.52
2019-02-19T11:57:12.105Z,15.70
2019-02-19T11:59:43.502Z,14.93
2019-02-19T12:02:16.015Z,15.53
2019-02-19T12:04:46.530Z,13.57
2019-02-19T12:07:16.892Z,17.87
2019-02-19T12:09:47.246Z,18.00
2019-02-19T12:12:17.587Z,17.97
2019-02-19T12:14:48.014Z,17.03
2019-02-19T12:17:18.352Z,16.83
2019-02-19T12:19:48.713Z,18.10
2019-02-19T12:22:19.084Z,18.30
2019-02-19T12:24:49.476Z,18.47
2019-02-19T12:27:19.795Z,16.40
2019-02-19T12:29:59.366Z,19.80
2019-02-19T12:32:33.508Z,21.13
2019-02-19T12:35:06.027Z,17.27
2019-02-19T12:37:38.773Z,17.03
2019-02-19T12:40:12.282Z,21.40
2019-02-19T12:42:45.349Z,16.73
2019-02-19T12:45:18.361Z,18.73
2019-02-19T12:47:50.748Z,16.87
2019-02-19T12:50:24.269Z,19.70
2019-02-19T12:52:57.156Z,18.30
2019-02-19T12:55:27.707Z,36.83
2019-02-19T12:57:58.054Z,35.00
2019-02-19T13:00:28.413Z,32.10
2019-02-19T13:02:58.749Z,18.60
2019-02-19T13:05:29.115Z,17.70
2019-02-19T13:07:59.446Z,17.80
2019-02-19T13:10:29.803Z,18.47
2019-02-19T13:13:00.231Z,20.40
2019-02-19T13:15:30.639Z,20.40
2019-02-19T13:18:00.974Z,21.87
2019-02-19T13:20:31.350Z,18.83
2019-02-19T13:23:01.721Z,17.00
2019-02-19T13:25:32.087Z,19.13
2019-02-19T13:28:02.413Z,20.83
2019-02-19T13:30:32.764Z,21.87
2019-02-19T13:33:03.098Z,19.87
2019-02-19T13:35:33.500Z,19.00
2019-02-19T13:38:03.817Z,20.17
2019-02-19T13:43:12.378Z,37.43
2019-02-19T13:45:42.753Z,21.13
2019-02-19T13:48:13.090Z,19.37
2019-02-19T13:50:43.463Z,19.80
2019-02-19T13:53:31.709Z,19.03
2019-02-19T13:56:03.260Z,17.37
2019-02-19T13:58:33.624Z,19.37
2019-02-19T14:01:04.082Z,18.17
2019-02-19T14:03:34.406Z,15.83
2019-02-19T14:06:04.818Z,17.50
2019-02-19T14:08:35.140Z,14.93
2019-02-19T14:11:05.846Z,18.23
2019-02-19T14:13:37.676Z,16.60
2019-02-19T14:16:33.263Z,16.90
2019-02-19T14:19:08.753Z,16.30
2019-02-19T14:22:04.792Z,17.70
2019-02-19T14:24:52.973Z,16.10
2019-02-19T14:27:57.717Z,16.37
2019-02-19T14:30:50.254Z,17.83
2019-02-19T14:33:48.541Z,16.77
2019-02-19T14:36:27.468Z,17.20
2019-02-19T14:39:12.439Z,17.67
2019-02-19T14:42:04.886Z,18.20
2019-02-19T14:45:03.073Z,18.97
2019-02-19T14:48:01.722Z,17.97
2019-02-19T14:50:53.966Z,19.93
2019-02-19T14:53:36.518Z,22.47
2019-02-19T14:56:34.859Z,18.90
2019-02-19T14:59:23.112Z,24.00
2019-02-19T15:02:21.539Z,19.13
2019-02-19T15:05:22.828Z,19.90
2019-02-19T15:08:14.485Z,17.63
2019-02-19T15:11:02.645Z,21.47
2019-02-19T15:13:51.963Z,20.80
2019-02-19T15:16:32.372Z,20.13
2019-02-19T15:19:20.002Z,20.17
2019-02-19T15:22:21.354Z,24.13
2019-02-19T15:25:09.655Z,22.93
2019-02-19T15:27:58.963Z,20.80
2019-02-19T15:30:46.826Z,25.10
2019-02-19T15:33:54.493Z,24.87
2019-02-19T15:36:42.487Z,27.40
2019-02-19T15:39:38.224Z,24.60
2019-02-19T15:42:36.404Z,25.43
2019-02-19T15:45:37.958Z,22.80
2019-02-19T15:48:27.257Z,24.23
2019-02-19T15:51:25.412Z,29.17
2019-02-19T15:54:10.701Z,28.00
2019-02-19T15:56:58.942Z,23.80
2019-02-19T15:59:47.315Z,23.03
2019-02-19T16:02:38.839Z,20.30
2019-02-19T16:05:28.279Z,22.13
2019-02-19T16:08:14.217Z,20.77
2019-02-19T16:10:50.953Z,21.43
2019-02-19T16:13:52.476Z,21.93
2019-02-19T16:16:42.604Z,18.67
2019-02-19T16:19:34.724Z,24.43
2019-02-19T16:22:42.313Z,51.20
2019-02-19T16:25:21.511Z,34.47
2019-02-19T16:28:19.081Z,32.17
2019-02-19T16:31:08.378Z,29.43
2019-02-19T16:33:56.691Z,26.70
2019-02-19T16:36:42.552Z,22.33
2019-02-19T16:39:37.671Z,21.93
2019-02-19T16:42:27.003Z,20.77
2019-02-19T16:45:23.292Z,21.83
2019-02-19T16:48:15.591Z,24.87
2019-02-19T16:50:56.327Z,26.27
2019-02-19T16:53:53.375Z,24.60
2019-02-19T16:56:35.745Z,22.03
2019-02-19T16:59:31.451Z,24.03
2019-02-19T17:02:17.578Z,22.40
2019-02-19T17:04:54.929Z,24.20
2019-02-19T17:07:34.189Z,23.07
2019-02-19T17:10:36.017Z,25.83
2019-02-19T17:13:25.436Z,27.47
2019-02-19T17:16:14.807Z,28.50
2019-02-19T17:18:55.411Z,28.30
2019-02-19T17:21:35.731Z,26.67
2019-02-19T17:24:32.389Z,25.57
2019-02-19T17:27:19.756Z,28.23
2019-02-19T17:30:18.546Z,28.10
2019-02-19T17:33:07.683Z,31.07
2019-02-19T17:36:03.240Z,32.28
2019-02-19T17:38:42.239Z,29.97
2019-02-19T17:41:18.807Z,29.33
2019-02-19T17:44:04.435Z,30.40
2019-02-19T17:46:52.888Z,30.67
2019-02-19T17:49:52.519Z,25.90
2019-02-19T17:52:37.586Z,26.40
2019-02-19T17:55:27.073Z,25.47
2019-02-19T17:58:12.463Z,24.67
2019-02-19T18:01:00.605Z,24.07
2019-02-19T18:03:56.063Z,34.87
2019-02-19T18:06:43.599Z,53.50
2019-02-19T18:09:33.858Z,37.97
2019-02-19T18:12:10.466Z,38.70
2019-02-19T18:14:58.674Z,37.97
2019-02-19T18:17:46.458Z,37.60
2019-02-19T18:20:18.546Z,46.73
2019-02-19T18:22:48.882Z,43.00
2019-02-19T18:25:19.220Z,35.23
2019-02-19T18:27:49.729Z,36.93
2019-02-19T18:30:21.950Z,35.13
2019-02-19T18:32:53.025Z,35.37
2019-02-19T18:35:23.392Z,33.53
2019-02-19T18:37:53.750Z,39.37
2019-02-19T18:40:24.123Z,34.07
2019-02-19T18:42:54.455Z,34.00
2019-02-19T18:45:24.869Z,35.10
2019-02-19T18:47:55.193Z,34.43
2019-02-19T18:50:25.574Z,33.03
2019-02-19T18:52:57.483Z,33.53
2019-02-19T18:55:27.853Z,36.57
2019-02-19T18:57:58.171Z,39.90
2019-02-19T19:00:28.517Z,43.37
2019-02-19T19:02:58.861Z,52.03
2019-02-19T19:05:29.845Z,45.63
2019-02-19T19:08:00.327Z,50.63
2019-02-19T19:10:30.678Z,76.50
2019-02-19T19:13:01.203Z,58.23
2019-02-19T19:15:32.844Z,54.30
2019-02-19T19:18:03.326Z,51.30
2019-02-19T19:20:33.717Z,49.90
2019-02-19T19:23:04.120Z,45.63
2019-02-19T19:25:34.917Z,48.83
2019-02-19T19:28:06.359Z,42.63
2019-02-19T19:30:36.731Z,44.77
2019-02-19T19:33:08.045Z,45.00
2019-02-19T19:35:40.487Z,50.17
2019-02-19T19:38:10.837Z,50.13
2019-02-19T19:40:41.283Z,55.73
2019-02-19T19:43:11.636Z,54.23
2019-02-19T19:45:43.136Z,52.73
2019-02-19T19:48:13.467Z,52.73
2019-02-19T19:50:43.817Z,51.50
2019-02-19T19:53:15.682Z,56.00
2019-02-19T19:55:46.026Z,56.97
2019-02-19T19:58:17.818Z,57.70
2019-02-19T20:00:48.193Z,57.63
2019-02-19T20:03:19.088Z,61.17
2019-02-19T20:05:49.997Z,57.83
2019-02-19T20:08:21.281Z,56.40
2019-02-19T20:10:51.875Z,56.13
2019-02-19T20:13:22.215Z,57.67
2019-02-19T20:15:52.648Z,59.70
2019-02-19T20:18:24.067Z,56.53
2019-02-19T20:20:55.559Z,57.13
2019-02-19T20:23:27.010Z,57.33
2019-02-19T20:25:58.251Z,55.83
2019-02-19T20:28:30.725Z,63.70
2019-02-19T20:31:02.692Z,60.87
2019-02-19T20:33:33.129Z,57.00
2019-02-19T20:36:03.551Z,63.73
2019-02-19T20:38:34.122Z,66.40
2019-02-19T20:41:04.564Z,60.90
2019-02-19T20:43:35.023Z,62.33
2019-02-19T20:46:06.126Z,61.00
2019-02-19T20:48:36.554Z,59.83
2019-02-19T20:51:06.936Z,56.70
2019-02-19T20:53:37.379Z,60.13
2019-02-19T20:56:07.887Z,56.23
2019-02-19T20:58:38.418Z,54.13
2019-02-19T21:01:08.865Z,56.57
2019-02-19T21:03:39.268Z,60.97
2019-02-19T21:06:10.352Z,57.67
2019-02-19T21:08:41.817Z,62.10
2019-02-19T21:11:15.759Z,56.90
2019-02-19T21:13:46.219Z,54.63
2019-02-19T21:16:18.236Z,57.20
2019-02-19T21:18:49.033Z,54.77
2019-02-19T21:21:19.386Z,54.77
2019-02-19T21:23:50.330Z,55.40
2019-02-19T21:26:22.030Z,52.40
2019-02-19T21:28:52.903Z,56.27
2019-02-19T21:31:23.448Z,57.43
2019-02-19T21:34:01.674Z,58.53
2019-02-19T21:36:35.448Z,55.70
2019-02-19T21:39:07.662Z,64.17
2019-02-19T21:41:39.952Z,59.87
2019-02-19T21:44:12.845Z,65.63
2019-02-19T21:46:44.840Z,74.43
2019-02-19T21:49:16.540Z,78.90
2019-02-19T21:51:53.893Z,88.53
2019-02-19T21:54:19.290Z,86.77
2019-02-19T21:56:50.011Z,78.23
2019-02-19T21:59:22.583Z,75.03
2019-02-19T22:01:52.811Z,57.17
2019-02-19T22:04:25.746Z,59.63
2019-02-19T22:06:56.115Z,70.03
2019-02-19T22:09:28.715Z,74.60
2019-02-19T22:11:59.092Z,74.83
2019-02-19T22:14:29.419Z,70.70
2019-02-19T22:16:59.775Z,75.23
2019-02-19T22:19:30.139Z,69.70
2019-02-19T22:22:13.188Z,66.63
2019-02-19T22:24:43.628Z,74.10
2019-02-19T22:27:14.065Z,67.23
2019-02-19T22:29:44.449Z,76.17
2019-02-19T22:32:17.026Z,80.57
2019-02-19T22:34:47.370Z,83.67
2019-02-19T22:37:17.741Z,82.60
2019-02-19T22:39:48.124Z,75.53
2019-02-19T22:42:18.588Z,77.90
2019-02-19T22:44:48.910Z,83.67
2019-02-19T22:47:19.278Z,76.80
2019-02-19T22:49:49.611Z,80.57
2019-02-19T22:52:19.970Z,89.73
2019-02-19T22:54:59.383Z,86.20
2019-02-19T22:57:29.748Z,80.33
2019-02-19T23:00:01.649Z,87.63
2019-02-19T23:02:33.828Z,81.20
2019-02-19T23:05:04.653Z,87.57
2019-02-19T23:07:35.981Z,97.03
2019-02-19T23:10:06.908Z,77.40
2019-02-19T23:12:37.665Z,80.97
2019-02-19T23:15:08.086Z,80.60
2019-02-19T23:17:40.089Z,80.90
2019-02-19T23:20:11.044Z,91.27
2019-02-19T23:22:41.492Z,74.37
2019-02-19T23:25:11.862Z,101.73
2019-02-19T23:27:42.319Z,84.20
2019-02-19T23:30:13.099Z,79.60
2019-02-19T23:32:45.293Z,81.13
2019-02-19T23:35:24.985Z,79.97
2019-02-19T23:37:55.639Z,70.97
2019-02-19T23:40:26.346Z,62.67
2019-02-19T23:42:56.869Z,64.37
2019-02-19T23:45:29.881Z,62.63
2019-02-19T23:48:00.543Z,68.90
2019-02-19T23:50:31.883Z,70.43
2019-02-19T23:53:02.398Z,73.77
2019-02-19T23:55:33.061Z,67.63
2019-02-19T23:58:04.811Z,76.07
